sensor_id;sensor_type;location;lat;lon;timestamp;pressure;altitude;pressure_sealevel;temperature
40047;BMP280;31510;48.122;11.576;2022-10-16T00:00:41;95719.91;;;13.67
40047;BMP280;31510;48.122;11.576;2022-10-16T00:03:08;95721.84;;;13.66
40047;BMP280;31510;48.122;11.576;2022-10-16T00:05:38;95715.00;;;13.65
40047;BMP280;31510;48.122;11.576;2022-10-16T00:08:04;95719.06;;;13.61
40047;BMP280;31510;48.122;11.576;2022-10-16T00:10:29;95726.06;;;13.58
40047;BMP280;31510;48.122;11.576;2022-10-16T00:12:55;95722.53;;;13.53
40047;BMP280;31510;48.122;11.576;2022-10-16T00:15:20;95721.50;;;13.50
40047;BMP280;31510;48.122;11.576;2022-10-16T00:17:45;95724.94;;;13.51
40047;BMP280;31510;48.122;11.576;2022-10-16T00:20:11;95721.50;;;13.50
40047;BMP280;31510;48.122;11.576;2022-10-16T00:22:36;95735.53;;;13.45
40047;BMP280;31510;48.122;11.576;2022-10-16T00:25:01;95725.25;;;13.44
40047;BMP280;31510;48.122;11.576;2022-10-16T00:27:26;95715.72;;;13.43
40047;BMP280;31510;48.122;11.576;2022-10-16T00:29:52;95722.59;;;13.44
40047;BMP280;31510;48.122;11.576;2022-10-16T00:32:20;95726.00;;;13.44
40047;BMP280;31510;48.122;11.576;2022-10-16T00:34:46;95729.13;;;13.43
40047;BMP280;31510;48.122;11.576;2022-10-16T00:37:12;95727.66;;;13.42
40047;BMP280;31510;48.122;11.576;2022-10-16T00:39:37;95728.13;;;13.40
40047;BMP280;31510;48.122;11.576;2022-10-16T00:42:02;95727.06;;;13.38
40047;BMP280;31510;48.122;11.576;2022-10-16T00:44:52;95719.97;;;13.35
40047;BMP280;31510;48.122;11.576;2022-10-16T00:47:22;95732.59;;;13.34
40047;BMP280;31510;48.122;11.576;2022-10-16T00:49:51;95722.34;;;13.33
40047;BMP280;31510;48.122;11.576;2022-10-16T00:52:18;95719.66;;;13.33
40047;BMP280;31510;48.122;11.576;2022-10-16T00:54:45;95730.06;;;13.31
40047;BMP280;31510;48.122;11.576;2022-10-16T00:57:11;95726.66;;;13.30
40047;BMP280;31510;48.122;11.576;2022-10-16T00:59:38;95723.69;;;13.28
40047;BMP280;31510;48.122;11.576;2022-10-16T01:02:07;95722.69;;;13.26
40047;BMP280;31510;48.122;11.576;2022-10-16T01:04:39;95724.59;;;13.25
40047;BMP280;31510;48.122;11.576;2022-10-16T01:07:20;95734.56;;;13.25
40047;BMP280;31510;48.122;11.576;2022-10-16T01:10:24;95737.69;;;13.23
40047;BMP280;31510;48.122;11.576;2022-10-16T01:12:57;95735.63;;;13.27
40047;BMP280;31510;48.122;11.576;2022-10-16T01:15:44;95748.38;;;13.32
40047;BMP280;31510;48.122;11.576;2022-10-16T01:19:25;95748.38;;;13.32
40047;BMP280;31510;48.122;11.576;2022-10-16T01:21:44;95758.06;;;13.30
40047;BMP280;31510;48.122;11.576;2022-10-16T01:24:40;95759.25;;;13.29
40047;BMP280;31510;48.122;11.576;2022-10-16T01:29:44;95763.25;;;13.33
40047;BMP280;31510;48.122;11.576;2022-10-16T01:32:35;95749.88;;;13.33
40047;BMP280;31510;48.122;11.576;2022-10-16T01:37:36;95746.63;;;13.29
40047;BMP280;31510;48.122;11.576;2022-10-16T01:40:06;95745.56;;;13.27
40047;BMP280;31510;48.122;11.576;2022-10-16T01:42:37;95742.59;;;13.25
40047;BMP280;31510;48.122;11.576;2022-10-16T01:45:05;95746.19;;;13.22
40047;BMP280;31510;48.122;11.576;2022-10-16T01:47:33;95746.06;;;13.16
40047;BMP280;31510;48.122;11.576;2022-10-16T01:50:02;95747.56;;;13.17
40047;BMP280;31510;48.122;11.576;2022-10-16T01:52:32;95738.03;;;13.16
40047;BMP280;31510;48.122;11.576;2022-10-16T01:55:00;95748.00;;;13.16
40047;BMP280;31510;48.122;11.576;2022-10-16T01:57:28;95734.91;;;13.18
40047;BMP280;31510;48.122;11.576;2022-10-16T01:59:56;95741.47;;;13.17
40047;BMP280;31510;48.122;11.576;2022-10-16T02:02:26;95729.16;;;13.11
40047;BMP280;31510;48.122;11.576;2022-10-16T02:05:05;95725.91;;;13.07
40047;BMP280;31510;48.122;11.576;2022-10-16T02:07:33;95731.69;;;13.05
40047;BMP280;31510;48.122;11.576;2022-10-16T02:10:00;95728.28;;;13.05
40047;BMP280;31510;48.122;11.576;2022-10-16T02:15:10;95721.72;;;13.06
40047;BMP280;31510;48.122;11.576;2022-10-16T02:17:35;95719.34;;;13.08
40047;BMP280;31510;48.122;11.576;2022-10-16T02:20:01;95724.06;;;13.13
40047;BMP280;31510;48.122;11.576;2022-10-16T02:22:30;95724.94;;;13.18
40047;BMP280;31510;48.122;11.576;2022-10-16T02:24:58;95734.28;;;13.23
40047;BMP280;31510;48.122;11.576;2022-10-16T02:27:27;95733.84;;;13.24
40047;BMP280;31510;48.122;11.576;2022-10-16T02:30:14;95731.91;;;13.25
40047;BMP280;31510;48.122;11.576;2022-10-16T02:32:42;95731.63;;;13.23
40047;BMP280;31510;48.122;11.576;2022-10-16T02:35:10;95729.38;;;13.21
40047;BMP280;31510;48.122;11.576;2022-10-16T02:37:36;95735.63;;;13.18
40047;BMP280;31510;48.122;11.576;2022-10-16T02:40:04;95741.75;;;13.19
40047;BMP280;31510;48.122;11.576;2022-10-16T02:42:34;95744.44;;;13.19
40047;BMP280;31510;48.122;11.576;2022-10-16T02:45:00;95742.19;;;13.17
40047;BMP280;31510;48.122;11.576;2022-10-16T02:47:25;95731.38;;;13.12
40047;BMP280;31510;48.122;11.576;2022-10-16T02:49:50;95741.50;;;13.08
40047;BMP280;31510;48.122;11.576;2022-10-16T02:52:16;95747.31;;;13.07
40047;BMP280;31510;48.122;11.576;2022-10-16T02:54:41;95761.13;;;13.05
40047;BMP280;31510;48.122;11.576;2022-10-16T02:57:06;95758.19;;;13.03
40047;BMP280;31510;48.122;11.576;2022-10-16T02:59:32;95748.53;;;12.97
40047;BMP280;31510;48.122;11.576;2022-10-16T03:01:57;95748.25;;;12.95
40047;BMP280;31510;48.122;11.576;2022-10-16T03:04:22;95751.81;;;12.92
40047;BMP280;31510;48.122;11.576;2022-10-16T03:06:47;95750.50;;;12.87
40047;BMP280;31510;48.122;11.576;2022-10-16T03:09:13;95755.84;;;12.87
40047;BMP280;31510;48.122;11.576;2022-10-16T03:11:38;95749.44;;;12.85
40047;BMP280;31510;48.122;11.576;2022-10-16T03:14:03;95740.84;;;12.81
40047;BMP280;31510;48.122;11.576;2022-10-16T03:16:28;95743.19;;;12.79
40047;BMP280;31510;48.122;11.576;2022-10-16T03:18:54;95746.75;;;12.76
40047;BMP280;31510;48.122;11.576;2022-10-16T03:21:19;95743.19;;;12.79
40047;BMP280;31510;48.122;11.576;2022-10-16T03:23:44;95751.22;;;12.79
40047;BMP280;31510;48.122;11.576;2022-10-16T03:26:10;95746.31;;;12.77
40047;BMP280;31510;48.122;11.576;2022-10-16T03:28:35;95746.47;;;12.74
40047;BMP280;31510;48.122;11.576;2022-10-16T03:31:00;95760.31;;;12.73
40047;BMP280;31510;48.122;11.576;2022-10-16T03:33:25;95744.41;;;12.69
40047;BMP280;31510;48.122;11.576;2022-10-16T03:35:52;95749.75;;;12.69
40047;BMP280;31510;48.122;11.576;2022-10-16T03:38:18;95743.97;;;12.71
40047;BMP280;31510;48.122;11.576;2022-10-16T03:40:43;95748.88;;;12.72
40047;BMP280;31510;48.122;11.576;2022-10-16T03:43:08;95749.44;;;12.76
40047;BMP280;31510;48.122;11.576;2022-10-16T03:45:34;95760.44;;;12.78
40047;BMP280;31510;48.122;11.576;2022-10-16T03:47:59;95770.28;;;12.81
40047;BMP280;31510;48.122;11.576;2022-10-16T03:50:24;95765.06;;;12.86
40047;BMP280;31510;48.122;11.576;2022-10-16T03:52:49;95764.00;;;12.93
40047;BMP280;31510;48.122;11.576;2022-10-16T03:55:15;95762.63;;;12.97
40047;BMP280;31510;48.122;11.576;2022-10-16T03:57:40;95763.69;;;13.00
40047;BMP280;31510;48.122;11.576;2022-10-16T04:00:06;95758.91;;;13.04
40047;BMP280;31510;48.122;11.576;2022-10-16T04:02:31;95744.34;;;13.05
40047;BMP280;31510;48.122;11.576;2022-10-16T04:04:56;95756.53;;;13.06
40047;BMP280;31510;48.122;11.576;2022-10-16T04:07:22;95757.72;;;13.05
40047;BMP280;31510;48.122;11.576;2022-10-16T04:09:47;95753.09;;;13.05
40047;BMP280;31510;48.122;11.576;2022-10-16T04:12:12;95741.03;;;13.10
40047;BMP280;31510;48.122;11.576;2022-10-16T04:14:37;95758.88;;;13.13
40047;BMP280;31510;48.122;11.576;2022-10-16T04:17:03;95747.72;;;13.14
40047;BMP280;31510;48.122;11.576;2022-10-16T04:19:28;95758.44;;;13.14
40047;BMP280;31510;48.122;11.576;2022-10-16T04:21:53;95753.34;;;13.16
40047;BMP280;31510;48.122;11.576;2022-10-16T04:24:19;95744.16;;;13.17
40047;BMP280;31510;48.122;11.576;2022-10-16T04:26:44;95751.69;;;13.18
40047;BMP280;31510;48.122;11.576;2022-10-16T04:29:09;95763.19;;;13.19
40047;BMP280;31510;48.122;11.576;2022-10-16T04:31:34;95756.59;;;13.20
40047;BMP280;31510;48.122;11.576;2022-10-16T04:34:00;95763.47;;;13.21
40047;BMP280;31510;48.122;11.576;2022-10-16T04:36:25;95770.13;;;13.25
40047;BMP280;31510;48.122;11.576;2022-10-16T04:38:50;95761.63;;;13.27
40047;BMP280;31510;48.122;11.576;2022-10-16T04:41:15;95760.91;;;13.26
40047;BMP280;31510;48.122;11.576;2022-10-16T04:43:41;95764.75;;;13.25
40047;BMP280;31510;48.122;11.576;2022-10-16T04:46:06;95764.03;;;13.25
40047;BMP280;31510;48.122;11.576;2022-10-16T04:48:32;95769.97;;;13.29
40047;BMP280;31510;48.122;11.576;2022-10-16T04:50:58;95776.81;;;13.30
40047;BMP280;31510;48.122;11.576;2022-10-16T04:53:24;95768.03;;;13.29
40047;BMP280;31510;48.122;11.576;2022-10-16T04:55:49;95755.38;;;13.30
40047;BMP280;31510;48.122;11.576;2022-10-16T04:58:15;95763.59;;;13.26
40047;BMP280;31510;48.122;11.576;2022-10-16T05:00:40;95760.16;;;13.26
40047;BMP280;31510;48.122;11.576;2022-10-16T05:03:06;95757.03;;;13.27
40047;BMP280;31510;48.122;11.576;2022-10-16T05:05:34;95763.59;;;13.26
40047;BMP280;31510;48.122;11.576;2022-10-16T05:08:00;95766.41;;;13.23
40047;BMP280;31510;48.122;11.576;2022-10-16T05:10:25;95772.22;;;13.21
40047;BMP280;31510;48.122;11.576;2022-10-16T05:12:50;95766.41;;;13.23
40047;BMP280;31510;48.122;11.576;2022-10-16T05:15:16;95759.41;;;13.25
40047;BMP280;31510;48.122;11.576;2022-10-16T05:17:42;95763.59;;;13.26
40047;BMP280;31510;48.122;11.576;2022-10-16T05:20:07;95753.31;;;13.25
40047;BMP280;31510;48.122;11.576;2022-10-16T05:22:32;95751.84;;;13.24
40047;BMP280;31510;48.122;11.576;2022-10-16T05:24:58;95760.63;;;13.24
40047;BMP280;31510;48.122;11.576;2022-10-16T05:27:23;95765.53;;;13.26
40047;BMP280;31510;48.122;11.576;2022-10-16T05:29:48;95762.41;;;13.27
40047;BMP280;31510;48.122;11.576;2022-10-16T05:32:15;95770.25;;;13.31
40047;BMP280;31510;48.122;11.576;2022-10-16T05:34:41;95772.47;;;13.32
40047;BMP280;31510;48.122;11.576;2022-10-16T05:37:07;95761.03;;;13.32
40047;BMP280;31510;48.122;11.576;2022-10-16T05:39:32;95770.56;;;13.33
40047;BMP280;31510;48.122;11.576;2022-10-16T05:41:58;95779.78;;;13.32
40047;BMP280;31510;48.122;11.576;2022-10-16T05:44:23;95783.63;;;13.31
40047;BMP280;31510;48.122;11.576;2022-10-16T05:46:48;95788.69;;;13.29
40047;BMP280;31510;48.122;11.576;2022-10-16T05:49:14;95785.13;;;13.32
40047;BMP280;31510;48.122;11.576;2022-10-16T05:51:39;95794.94;;;13.35
40047;BMP280;31510;48.122;11.576;2022-10-16T05:54:05;95785.41;;;13.34
40047;BMP280;31510;48.122;11.576;2022-10-16T05:56:30;95798.97;;;13.30
40047;BMP280;31510;48.122;11.576;2022-10-16T05:58:55;95803.59;;;13.30
40047;BMP280;31510;48.122;11.576;2022-10-16T06:01:21;95803.13;;;13.31
40047;BMP280;31510;48.122;11.576;2022-10-16T06:03:49;95805.81;;;13.31
40047;BMP280;31510;48.122;11.576;2022-10-16T06:06:17;95801.66;;;13.30
40047;BMP280;31510;48.122;11.576;2022-10-16T06:08:43;95802.38;;;13.31
40047;BMP280;31510;48.122;11.576;2022-10-16T06:11:12;95805.53;;;13.29
40047;BMP280;31510;48.122;11.576;2022-10-16T06:13:38;95808.66;;;13.28
40047;BMP280;31510;48.122;11.576;2022-10-16T06:16:07;95803.47;;;13.24
40047;BMP280;31510;48.122;11.576;2022-10-16T06:18:32;95812.97;;;13.25
40047;BMP280;31510;48.122;11.576;2022-10-16T06:20:58;95811.50;;;13.24
40047;BMP280;31510;48.122;11.576;2022-10-16T06:23:24;95806.88;;;13.25
40047;BMP280;31510;48.122;11.576;2022-10-16T06:25:50;95805.97;;;13.28
40047;BMP280;31510;48.122;11.576;2022-10-16T06:28:15;95811.34;;;13.28
40047;BMP280;31510;48.122;11.576;2022-10-16T06:30:41;95816.69;;;13.28
40047;BMP280;31510;48.122;11.576;2022-10-16T06:33:09;95821.31;;;13.27
40047;BMP280;31510;48.122;11.576;2022-10-16T06:35:34;95822.03;;;13.28
40047;BMP280;31510;48.122;11.576;2022-10-16T06:38:00;95828.44;;;13.30
40047;BMP280;31510;48.122;11.576;2022-10-16T06:40:25;95830.22;;;13.33
40047;BMP280;31510;48.122;11.576;2022-10-16T06:42:50;95834.66;;;13.36
40047;BMP280;31510;48.122;11.576;2022-10-16T06:45:17;95839.88;;;13.40
40047;BMP280;31510;48.122;11.576;2022-10-16T06:47:42;95837.47;;;13.42
40047;BMP280;31510;48.122;11.576;2022-10-16T06:50:07;95843.13;;;13.44
40047;BMP280;31510;48.122;11.576;2022-10-16T06:52:34;95851.00;;;13.47
40047;BMP280;31510;48.122;11.576;2022-10-16T06:54:59;95853.66;;;13.47
40047;BMP280;31510;48.122;11.576;2022-10-16T06:57:25;95851.28;;;13.49
40047;BMP280;31510;48.122;11.576;2022-10-16T06:59:50;95850.06;;;13.50
40047;BMP280;31510;48.122;11.576;2022-10-16T07:02:16;95856.19;;;13.51
40047;BMP280;31510;48.122;11.576;2022-10-16T07:04:41;95863.78;;;13.52
40047;BMP280;31510;48.122;11.576;2022-10-16T07:07:06;95855.25;;;13.54
40047;BMP280;31510;48.122;11.576;2022-10-16T07:09:31;95862.84;;;13.55
40047;BMP280;31510;48.122;11.576;2022-10-16T07:11:57;95876.53;;;13.57
40047;BMP280;31510;48.122;11.576;2022-10-16T07:14:22;95869.56;;;13.59
40047;BMP280;31510;48.122;11.576;2022-10-16T07:16:48;95874.31;;;13.64
40047;BMP280;31510;48.122;11.576;2022-10-16T07:19:14;95879.34;;;13.71
40047;BMP280;31510;48.122;11.576;2022-10-16T07:21:40;95876.00;;;13.76
40047;BMP280;31510;48.122;11.576;2022-10-16T07:24:10;95871.53;;;13.82
40047;BMP280;31510;48.122;11.576;2022-10-16T07:26:36;95881.94;;;13.89
40047;BMP280;31510;48.122;11.576;2022-10-16T07:29:04;95877.13;;;13.93
40047;BMP280;31510;48.122;11.576;2022-10-16T07:31:29;95880.66;;;13.99
40047;BMP280;31510;48.122;11.576;2022-10-16T07:33:54;95883.22;;;14.02
40047;BMP280;31510;48.122;11.576;2022-10-16T07:36:20;95886.28;;;14.10
40047;BMP280;31510;48.122;11.576;2022-10-16T07:38:46;95890.59;;;14.16
40047;BMP280;31510;48.122;11.576;2022-10-16T07:41:13;95893.22;;;14.25
40047;BMP280;31510;48.122;11.576;2022-10-16T07:43:39;95898.97;;;14.33
40047;BMP280;31510;48.122;11.576;2022-10-16T07:46:05;95892.53;;;14.39
40047;BMP280;31510;48.122;11.576;2022-10-16T07:48:32;95903.19;;;14.48
40047;BMP280;31510;48.122;11.576;2022-10-16T07:50:59;95901.66;;;14.56
40047;BMP280;31510;48.122;11.576;2022-10-16T07:53:25;95912.53;;;14.61
40047;BMP280;31510;48.122;11.576;2022-10-16T07:55:50;95912.91;;;14.69
40047;BMP280;31510;48.122;11.576;2022-10-16T07:58:15;95914.97;;;14.74
40047;BMP280;31510;48.122;11.576;2022-10-16T08:00:41;95914.03;;;14.76
40047;BMP280;31510;48.122;11.576;2022-10-16T08:03:06;95912.38;;;14.79
40047;BMP280;31510;48.122;11.576;2022-10-16T08:05:32;95918.59;;;14.85
40047;BMP280;31510;48.122;11.576;2022-10-16T08:07:58;95920.63;;;14.90
40047;BMP280;31510;48.122;11.576;2022-10-16T08:10:25;95916.59;;;14.94
40047;BMP280;31510;48.122;11.576;2022-10-16T08:12:52;95926.50;;;15.03
40047;BMP280;31510;48.122;11.576;2022-10-16T08:15:18;95920.03;;;15.09
40047;BMP280;31510;48.122;11.576;2022-10-16T08:17:43;95918.50;;;15.17
40047;BMP280;31510;48.122;11.576;2022-10-16T08:20:09;95913.31;;;15.28
40047;BMP280;31510;48.122;11.576;2022-10-16T08:22:35;95912.28;;;15.40
40047;BMP280;31510;48.122;11.576;2022-10-16T08:25:00;95916.66;;;15.52
40047;BMP280;31510;48.122;11.576;2022-10-16T08:27:31;95919.25;;;15.60
40047;BMP280;31510;48.122;11.576;2022-10-16T08:29:56;95921.09;;;15.69
40047;BMP280;31510;48.122;11.576;2022-10-16T08:32:21;95920.53;;;15.79
40047;BMP280;31510;48.122;11.576;2022-10-16T08:34:46;95925.34;;;15.90
40047;BMP280;31510;48.122;11.576;2022-10-16T08:37:12;95924.91;;;16.11
40047;BMP280;31510;48.122;11.576;2022-10-16T08:39:38;95923.78;;;16.32
40047;BMP280;31510;48.122;11.576;2022-10-16T08:45:15;95927.78;;;16.56
40047;BMP280;31510;48.122;11.576;2022-10-16T08:50:24;95922.66;;;16.77
40047;BMP280;31510;48.122;11.576;2022-10-16T08:52:52;95927.66;;;16.84
40047;BMP280;31510;48.122;11.576;2022-10-16T08:55:43;95922.31;;;16.90
40047;BMP280;31510;48.122;11.576;2022-10-16T08:58:16;95937.59;;;16.98
40047;BMP280;31510;48.122;11.576;2022-10-16T09:00:43;95935.69;;;17.04
40047;BMP280;31510;48.122;11.576;2022-10-16T09:06:17;95946.25;;;17.27
40047;BMP280;31510;48.122;11.576;2022-10-16T09:19:44;95944.91;;;17.93
40047;BMP280;31510;48.122;11.576;2022-10-16T09:22:16;95944.00;;;18.01
40047;BMP280;31510;48.122;11.576;2022-10-16T09:24:41;95942.19;;;18.18
40047;BMP280;31510;48.122;11.576;2022-10-16T09:27:12;95943.53;;;18.34
40047;BMP280;31510;48.122;11.576;2022-10-16T09:29:37;95940.63;;;18.42
40047;BMP280;31510;48.122;11.576;2022-10-16T09:32:14;95951.19;;;18.46
40047;BMP280;31510;48.122;11.576;2022-10-16T09:34:45;95939.47;;;18.54
40047;BMP280;31510;48.122;11.576;2022-10-16T09:37:14;95944.47;;;18.72
40047;BMP280;31510;48.122;11.576;2022-10-16T09:39:50;95950.16;;;18.85
40047;BMP280;31510;48.122;11.576;2022-10-16T09:42:21;95941.84;;;18.94
40047;BMP280;31510;48.122;11.576;2022-10-16T09:44:49;95942.16;;;19.01
40047;BMP280;31510;48.122;11.576;2022-10-16T09:47:19;95943.91;;;19.10
40047;BMP280;31510;48.122;11.576;2022-10-16T09:50:04;95952.75;;;19.10
40047;BMP280;31510;48.122;11.576;2022-10-16T09:52:32;95951.75;;;19.08
40047;BMP280;31510;48.122;11.576;2022-10-16T09:54:59;95953.50;;;19.11
40047;BMP280;31510;48.122;11.576;2022-10-16T09:57:25;95953.03;;;19.12
40047;BMP280;31510;48.122;11.576;2022-10-16T09:59:53;95953.28;;;19.25
40047;BMP280;31510;48.122;11.576;2022-10-16T10:02:23;95954.78;;;19.31
40047;BMP280;31510;48.122;11.576;2022-10-16T10:04:53;95961.41;;;19.25
40047;BMP280;31510;48.122;11.576;2022-10-16T10:07:33;95959.69;;;19.27
40047;BMP280;31510;48.122;11.576;2022-10-16T10:10:03;95956.75;;;19.31
40047;BMP280;31510;48.122;11.576;2022-10-16T10:12:30;95946.72;;;19.42
40047;BMP280;31510;48.122;11.576;2022-10-16T10:15:03;95949.44;;;19.53
40047;BMP280;31510;48.122;11.576;2022-10-16T10:17:29;95945.25;;;19.63
40047;BMP280;31510;48.122;11.576;2022-10-16T10:22:48;95948.00;;;19.85
40047;BMP280;31510;48.122;11.576;2022-10-16T10:27:58;95951.19;;;19.72
40047;BMP280;31510;48.122;11.576;2022-10-16T10:33:28;95955.84;;;19.72
40047;BMP280;31510;48.122;11.576;2022-10-16T10:36:08;95954.84;;;19.80
40047;BMP280;31510;48.122;11.576;2022-10-16T10:38:39;95949.75;;;19.93
40047;BMP280;31510;48.122;11.576;2022-10-16T10:41:32;95948.50;;;19.89
40047;BMP280;31510;48.122;11.576;2022-10-16T10:46:39;95945.28;;;19.74
40047;BMP280;31510;48.122;11.576;2022-10-16T10:49:37;95941.13;;;19.89
40047;BMP280;31510;48.122;11.576;2022-10-16T10:54:42;95948.75;;;19.85
40047;BMP280;31510;48.122;11.576;2022-10-16T10:58:11;95947.50;;;19.81
40047;BMP280;31510;48.122;11.576;2022-10-16T11:00:27;95937.91;;;19.85
40047;BMP280;31510;48.122;11.576;2022-10-16T11:05:50;95946.28;;;19.87
40047;BMP280;31510;48.122;11.576;2022-10-16T11:10:56;95933.75;;;19.84
40047;BMP280;31510;48.122;11.576;2022-10-16T11:19:22;95932.25;;;20.05
40047;BMP280;31510;48.122;11.576;2022-10-16T11:24:41;95934.72;;;20.08
40047;BMP280;31510;48.122;11.576;2022-10-16T11:27:10;95923.38;;;20.15
40047;BMP280;31510;48.122;11.576;2022-10-16T11:29:45;95924.88;;;20.16
40047;BMP280;31510;48.122;11.576;2022-10-16T11:32:22;95933.19;;;20.45
40047;BMP280;31510;48.122;11.576;2022-10-16T11:34:52;95926.03;;;20.53
40047;BMP280;31510;48.122;11.576;2022-10-16T11:37:24;95937.09;;;20.66
40047;BMP280;31510;48.122;11.576;2022-10-16T11:39:52;95921.78;;;20.85
40047;BMP280;31510;48.122;11.576;2022-10-16T11:42:27;95922.72;;;20.87
40047;BMP280;31510;48.122;11.576;2022-10-16T11:45:19;95921.28;;;20.86
40047;BMP280;31510;48.122;11.576;2022-10-16T11:48:00;95918.78;;;20.94
40047;BMP280;31510;48.122;11.576;2022-10-16T11:50:43;95916.47;;;21.09
40047;BMP280;31510;48.122;11.576;2022-10-16T11:55:45;95919.66;;;21.18
40047;BMP280;31510;48.122;11.576;2022-10-16T12:03:40;95916.69;;;21.22
40047;BMP280;31510;48.122;11.576;2022-10-16T12:08:40;95913.13;;;21.37
40047;BMP280;31510;48.122;11.576;2022-10-16T12:13:45;95910.84;;;21.52
40047;BMP280;31510;48.122;11.576;2022-10-16T12:18:44;95912.47;;;21.66
40047;BMP280;31510;48.122;11.576;2022-10-16T12:21:11;95910.06;;;21.57
40047;BMP280;31510;48.122;11.576;2022-10-16T12:26:14;95910.03;;;21.17
40047;BMP280;31510;48.122;11.576;2022-10-16T12:28:48;95908.91;;;21.02
40047;BMP280;31510;48.122;11.576;2022-10-16T12:31:16;95908.91;;;20.96
40047;BMP280;31510;48.122;11.576;2022-10-16T12:33:58;95912.13;;;20.95
40047;BMP280;31510;48.122;11.576;2022-10-16T12:36:30;95911.13;;;20.92
40047;BMP280;31510;48.122;11.576;2022-10-16T12:38:57;95911.88;;;20.93
40047;BMP280;31510;48.122;11.576;2022-10-16T12:41:33;95908.91;;;20.91
40047;BMP280;31510;48.122;11.576;2022-10-16T12:44:00;95904.28;;;20.86
40047;BMP280;31510;48.122;11.576;2022-10-16T12:49:48;95916.81;;;20.89
40047;BMP280;31510;48.122;11.576;2022-10-16T12:51:52;95909.72;;;20.86
40047;BMP280;31510;48.122;11.576;2022-10-16T12:54:37;95912.88;;;20.90
40047;BMP280;31510;48.122;11.576;2022-10-16T12:57:30;95903.47;;;20.96
40047;BMP280;31510;48.122;11.576;2022-10-16T13:00:00;95908.66;;;20.94
40047;BMP280;31510;48.122;11.576;2022-10-16T13:10:40;95902.31;;;20.81
40047;BMP280;31510;48.122;11.576;2022-10-16T13:18:32;95906.06;;;20.67
40047;BMP280;31510;48.122;11.576;2022-10-16T13:29:05;95907.78;;;20.76
40047;BMP280;31510;48.122;11.576;2022-10-16T13:31:32;95907.78;;;20.76
40047;BMP280;31510;48.122;11.576;2022-10-16T13:33:59;95910.22;;;20.74
40047;BMP280;31510;48.122;11.576;2022-10-16T13:36:33;95914.19;;;20.67
40047;BMP280;31510;48.122;11.576;2022-10-16T13:39:20;95914.69;;;20.60
40047;BMP280;31510;48.122;11.576;2022-10-16T13:42:09;95919.09;;;20.58
40047;BMP280;31510;48.122;11.576;2022-10-16T13:44:46;95921.59;;;20.56
40047;BMP280;31510;48.122;11.576;2022-10-16T13:47:38;95914.19;;;20.62
40047;BMP280;31510;48.122;11.576;2022-10-16T13:50:13;95905.78;;;20.76
40047;BMP280;31510;48.122;11.576;2022-10-16T13:52:39;95907.25;;;20.83
40047;BMP280;31510;48.122;11.576;2022-10-16T13:57:37;95919.34;;;20.76
40047;BMP280;31510;48.122;11.576;2022-10-16T14:00:03;95917.34;;;20.77
40047;BMP280;31510;48.122;11.576;2022-10-16T14:02:35;95924.53;;;20.74
40047;BMP280;31510;48.122;11.576;2022-10-16T14:05:04;95926.50;;;20.68
40047;BMP280;31510;48.122;11.576;2022-10-16T14:07:32;95926.75;;;20.65
40047;BMP280;31510;48.122;11.576;2022-10-16T14:10:06;95928.47;;;20.62
40047;BMP280;31510;48.122;11.576;2022-10-16T14:12:34;95933.16;;;20.62
40047;BMP280;31510;48.122;11.576;2022-10-16T14:14:59;95928.22;;;20.60
40047;BMP280;31510;48.122;11.576;2022-10-16T14:17:34;95928.72;;;20.59
40047;BMP280;31510;48.122;11.576;2022-10-16T14:20:03;95924.81;;;20.54
40047;BMP280;31510;48.122;11.576;2022-10-16T14:24:59;95930.97;;;20.55
40047;BMP280;31510;48.122;11.576;2022-10-16T14:27:34;95928.75;;;20.53
40047;BMP280;31510;48.122;11.576;2022-10-16T14:30:25;95927.50;;;20.49
40047;BMP280;31510;48.122;11.576;2022-10-16T14:32:55;95926.31;;;20.44
40047;BMP280;31510;48.122;11.576;2022-10-16T14:35:41;95921.88;;;20.41
40047;BMP280;31510;48.122;11.576;2022-10-16T14:38:18;95936.66;;;20.41
40047;BMP280;31510;48.122;11.576;2022-10-16T14:40:47;95932.22;;;20.38
40047;BMP280;31510;48.122;11.576;2022-10-16T14:43:22;95925.84;;;20.35
40047;BMP280;31510;48.122;11.576;2022-10-16T14:45:56;95929.53;;;20.32
40047;BMP280;31510;48.122;11.576;2022-10-16T14:48:22;95921.66;;;20.29
40047;BMP280;31510;48.122;11.576;2022-10-16T14:50:48;95931.00;;;20.28
40047;BMP280;31510;48.122;11.576;2022-10-16T14:53:20;95928.28;;;20.28
40047;BMP280;31510;48.122;11.576;2022-10-16T14:55:46;95927.56;;;20.27
40047;BMP280;31510;48.122;11.576;2022-10-16T14:58:16;95934.72;;;20.25
40047;BMP280;31510;48.122;11.576;2022-10-16T15:00:42;95936.19;;;20.20
40047;BMP280;31510;48.122;11.576;2022-10-16T15:03:08;95917.97;;;20.15
40047;BMP280;31510;48.122;11.576;2022-10-16T15:05:33;95932.50;;;20.12
40047;BMP280;31510;48.122;11.576;2022-10-16T15:07:58;95929.06;;;20.06
40047;BMP280;31510;48.122;11.576;2022-10-16T15:10:25;95932.50;;;20.01
40047;BMP280;31510;48.122;11.576;2022-10-16T15:12:51;95935.44;;;19.98
40047;BMP280;31510;48.122;11.576;2022-10-16T15:17:45;95940.88;;;19.98
40047;BMP280;31510;48.122;11.576;2022-10-16T15:20:10;95950.22;;;19.97
40047;BMP280;31510;48.122;11.576;2022-10-16T15:22:35;95936.47;;;19.95
40047;BMP280;31510;48.122;11.576;2022-10-16T15:25:01;95949.50;;;19.91
40047;BMP280;31510;48.122;11.576;2022-10-16T15:27:26;95948.50;;;19.89
40047;BMP280;31510;48.122;11.576;2022-10-16T15:29:51;95947.78;;;19.83
40047;BMP280;31510;48.122;11.576;2022-10-16T15:32:16;95952.44;;;19.82
40047;BMP280;31510;48.122;11.576;2022-10-16T15:34:42;95950.19;;;19.81
40047;BMP280;31510;48.122;11.576;2022-10-16T15:37:08;95951.66;;;19.82
40047;BMP280;31510;48.122;11.576;2022-10-16T15:39:33;95954.38;;;19.82
40047;BMP280;31510;48.122;11.576;2022-10-16T15:41:59;95961.53;;;19.85
40047;BMP280;31510;48.122;11.576;2022-10-16T15:44:24;95960.06;;;19.89
40047;BMP280;31510;48.122;11.576;2022-10-16T15:46:54;95958.84;;;19.96
40047;BMP280;31510;48.122;11.576;2022-10-16T15:49:19;95959.84;;;20.03
40047;BMP280;31510;48.122;11.576;2022-10-16T15:51:45;95955.16;;;20.09